createdAt,value
2023-12-28T00:00:32.284Z,9.52
2023-12-28T00:02:59.175Z,10.27
2023-12-28T00:05:26.105Z,10.35
2023-12-28T00:07:52.886Z,9.40
2023-12-28T00:10:19.710Z,8.48
2023-12-28T00:12:50.023Z,8.15
2023-12-28T00:15:16.989Z,7.43
2023-12-28T00:17:44.073Z,7.32
2023-12-28T00:20:11.445Z,7.72
2023-12-28T00:22:40.990Z,6.70
2023-12-28T00:25:08.259Z,7.88
2023-12-28T00:27:35.126Z,7.18
2023-12-28T00:30:02.556Z,7.57
2023-12-28T00:32:29.502Z,7.63
2023-12-28T00:34:56.366Z,6.82
2023-12-28T00:37:23.231Z,6.47
2023-12-28T00:39:55.881Z,5.60
2023-12-28T00:42:23.800Z,6.45
2023-12-28T00:44:50.733Z,6.95
2023-12-28T00:47:18.933Z,7.22
2023-12-28T00:49:45.832Z,6.55
2023-12-28T00:52:12.715Z,6.25
2023-12-28T00:54:39.679Z,6.43
2023-12-28T00:57:06.577Z,6.40
2023-12-28T00:59:33.404Z,6.47
2023-12-28T01:02:02.738Z,6.40
2023-12-28T01:04:29.743Z,6.70
2023-12-28T01:06:59.682Z,6.30
2023-12-28T01:09:29.720Z,6.45
2023-12-28T01:11:56.826Z,5.53
2023-12-28T01:14:26.085Z,5.32
2023-12-28T01:16:52.948Z,5.80
2023-12-28T01:19:20.474Z,5.70
2023-12-28T01:21:48.612Z,5.95
2023-12-28T01:24:15.588Z,5.47
2023-12-28T01:26:47.009Z,6.82
2023-12-28T01:29:13.789Z,7.35
2023-12-28T01:31:41.978Z,6.50
2023-12-28T01:34:08.952Z,6.90
2023-12-28T01:36:38.532Z,6.35
2023-12-28T01:39:05.284Z,6.45
2023-12-28T01:41:34.910Z,6.00
2023-12-28T01:44:01.873Z,7.03
2023-12-28T01:46:28.969Z,7.80
2023-12-28T01:48:57.606Z,8.68
2023-12-28T01:51:24.914Z,8.80
2023-12-28T01:53:53.484Z,9.02
2023-12-28T01:56:21.495Z,8.50
2023-12-28T01:58:51.242Z,7.60
2023-12-28T02:03:46.850Z,7.50
2023-12-28T02:06:15.257Z,7.07
2023-12-28T02:08:45.155Z,6.55
2023-12-28T02:11:14.913Z,7.30
2023-12-28T02:13:44.694Z,8.10
2023-12-28T02:16:22.126Z,8.43
2023-12-28T02:18:57.970Z,9.38
2023-12-28T02:21:28.067Z,12.45
2023-12-28T02:23:58.064Z,11.00
2023-12-28T02:26:24.870Z,12.27
2023-12-28T02:28:51.676Z,11.63
2023-12-28T02:31:52.041Z,11.15
2023-12-28T02:34:28.624Z,10.10
2023-12-28T02:37:01.532Z,12.38
2023-12-28T02:39:30.824Z,11.73
2023-12-28T02:41:57.874Z,14.18
2023-12-28T02:44:24.799Z,13.90
2023-12-28T02:46:51.540Z,15.40
2023-12-28T02:49:18.436Z,18.42
2023-12-28T02:51:45.321Z,18.88
2023-12-28T02:54:12.171Z,18.35
2023-12-28T02:56:41.701Z,18.15
2023-12-28T02:59:08.545Z,17.48
2023-12-28T03:01:39.335Z,17.52
2023-12-28T03:04:06.218Z,18.17
2023-12-28T03:06:32.992Z,18.30
2023-12-28T03:08:59.752Z,18.73
2023-12-28T03:11:26.669Z,18.80
2023-12-28T03:13:53.437Z,18.90
2023-12-28T03:16:20.221Z,20.90
2023-12-28T03:18:48.747Z,18.20
2023-12-28T03:21:15.627Z,18.75
2023-12-28T03:23:45.136Z,17.10
2023-12-28T03:26:12.839Z,19.75
2023-12-28T03:28:41.156Z,22.17
2023-12-28T03:31:10.525Z,17.08
2023-12-28T03:33:39.817Z,17.10
2023-12-28T03:36:08.338Z,12.95
2023-12-28T03:38:39.334Z,16.15
2023-12-28T03:41:06.102Z,17.08
2023-12-28T03:43:32.874Z,18.10
2023-12-28T03:45:59.632Z,16.85
2023-12-28T03:48:28.193Z,15.10
2023-12-28T03:50:55.193Z,15.18
2023-12-28T03:53:25.729Z,13.52
2023-12-28T03:55:52.475Z,14.25
2023-12-28T03:58:19.597Z,14.40
2023-12-28T04:00:48.211Z,13.18
2023-12-28T04:03:15.116Z,13.57
2023-12-28T04:05:43.287Z,12.38
2023-12-28T04:08:10.070Z,13.35
2023-12-28T04:10:41.671Z,14.57
2023-12-28T04:13:08.390Z,14.63
2023-12-28T04:15:35.282Z,13.88
2023-12-28T04:18:02.354Z,14.95
2023-12-28T04:20:29.493Z,13.27
2023-12-28T04:23:00.067Z,16.17
2023-12-28T04:25:26.843Z,15.48
2023-12-28T04:27:53.655Z,15.48
2023-12-28T04:30:20.543Z,15.25
2023-12-28T04:32:47.408Z,15.82
2023-12-28T04:35:17.022Z,17.10
2023-12-28T04:37:43.797Z,17.13
2023-12-28T04:40:10.872Z,17.08
2023-12-28T04:42:51.452Z,14.45
2023-12-28T04:45:20.124Z,12.15
2023-12-28T04:47:47.009Z,13.45
2023-12-28T04:50:19.779Z,14.30
2023-12-28T04:52:46.518Z,15.32
2023-12-28T04:55:13.599Z,15.63
2023-12-28T04:57:43.730Z,16.33
2023-12-28T05:00:10.825Z,16.33
2023-12-28T05:02:39.906Z,17.73
2023-12-28T05:05:08.150Z,15.95
2023-12-28T05:07:34.916Z,18.70
2023-12-28T05:10:01.661Z,17.25
2023-12-28T05:12:42.729Z,17.15
2023-12-28T05:15:11.000Z,17.25
2023-12-28T05:17:43.348Z,16.27
2023-12-28T05:20:10.734Z,11.65
2023-12-28T05:22:37.539Z,17.13
2023-12-28T05:25:04.717Z,13.32
2023-12-28T05:27:31.527Z,9.98
2023-12-28T05:30:01.928Z,9.93
2023-12-28T05:32:28.948Z,9.60
2023-12-28T05:34:55.813Z,6.85
2023-12-28T05:37:22.623Z,6.95
2023-12-28T05:39:49.467Z,6.90
2023-12-28T05:42:20.590Z,8.27
2023-12-28T05:44:47.496Z,6.68
2023-12-28T05:47:14.295Z,7.10
2023-12-28T05:49:41.214Z,6.10
2023-12-28T05:52:08.116Z,6.68
2023-12-28T05:54:34.911Z,7.47
2023-12-28T05:57:01.685Z,8.07
2023-12-28T05:59:28.407Z,8.18
2023-12-28T06:01:55.781Z,8.88
2023-12-28T06:04:25.163Z,9.27
2023-12-28T06:06:54.990Z,8.80
2023-12-28T06:09:21.853Z,10.02
2023-12-28T06:11:48.690Z,11.60
2023-12-28T06:14:17.733Z,11.40
2023-12-28T06:16:44.491Z,11.18
2023-12-28T06:19:13.803Z,10.98
2023-12-28T06:21:40.736Z,10.75
2023-12-28T06:24:07.606Z,11.60
2023-12-28T06:26:34.394Z,11.05
2023-12-28T06:29:01.200Z,10.57
2023-12-28T06:31:28.121Z,9.65
2023-12-28T06:33:55.006Z,9.95
2023-12-28T06:36:24.943Z,9.43
2023-12-28T06:38:52.388Z,8.55
2023-12-28T06:41:19.109Z,7.53
2023-12-28T06:43:45.860Z,8.30
2023-12-28T06:46:12.717Z,8.35
2023-12-28T06:48:42.518Z,8.05
2023-12-28T06:51:10.165Z,8.82
2023-12-28T06:53:36.927Z,8.15
2023-12-28T06:56:04.604Z,9.07
2023-12-28T06:58:31.342Z,8.45
2023-12-28T07:01:01.520Z,8.27
2023-12-28T07:03:31.407Z,7.55
2023-12-28T07:05:58.575Z,7.38
2023-12-28T07:08:32.492Z,7.25
2023-12-28T07:11:00.922Z,7.38
2023-12-28T07:13:27.804Z,7.32
2023-12-28T07:15:57.780Z,7.15
2023-12-28T07:18:30.053Z,6.57
2023-12-28T07:20:59.498Z,6.53
2023-12-28T07:23:26.295Z,5.93
2023-12-28T07:25:56.060Z,6.05
2023-12-28T07:28:22.834Z,5.88
2023-12-28T07:30:49.740Z,6.18
2023-12-28T07:33:16.786Z,6.53
2023-12-28T07:35:43.727Z,7.05
2023-12-28T07:38:10.494Z,6.38
2023-12-28T07:40:37.271Z,5.75
2023-12-28T07:43:06.833Z,5.18
2023-12-28T07:45:34.013Z,6.35
2023-12-28T07:48:01.521Z,6.75
2023-12-28T07:50:28.502Z,6.40
2023-12-28T07:52:55.256Z,8.20
2023-12-28T07:55:22.085Z,10.70
2023-12-28T07:57:52.114Z,11.30
2023-12-28T08:00:19.753Z,11.95
2023-12-28T08:02:49.598Z,13.50
2023-12-28T08:05:16.485Z,12.55
2023-12-28T08:07:43.279Z,12.38
2023-12-28T08:10:13.541Z,13.55
2023-12-28T08:12:40.414Z,16.25
2023-12-28T08:15:09.820Z,18.40
2023-12-28T08:17:39.925Z,18.13
2023-12-28T08:20:07.660Z,20.75
2023-12-28T08:22:34.388Z,20.58
2023-12-28T08:25:01.179Z,21.73
2023-12-28T08:27:28.294Z,22.60
2023-12-28T08:29:55.117Z,23.60
2023-12-28T08:32:21.953Z,22.80
2023-12-28T08:34:48.798Z,23.05
2023-12-28T08:37:15.701Z,23.92
2023-12-28T08:39:42.520Z,25.73
2023-12-28T08:42:11.945Z,26.77
2023-12-28T08:44:38.669Z,24.13
2023-12-28T08:47:05.504Z,25.33
2023-12-28T08:49:32.289Z,27.45
2023-12-28T08:52:02.248Z,27.65
2023-12-28T08:54:29.108Z,24.95
2023-12-28T08:56:59.814Z,24.73
2023-12-28T08:59:32.365Z,20.33
2023-12-28T09:01:59.166Z,26.00
2023-12-28T09:04:26.058Z,28.30
2023-12-28T09:06:53.167Z,23.67
2023-12-28T09:09:24.108Z,24.83
2023-12-28T09:11:52.541Z,30.10
2023-12-28T09:14:19.343Z,31.92
2023-12-28T09:16:48.784Z,32.58
2023-12-28T09:19:16.946Z,32.92
2023-12-28T09:21:43.792Z,35.60
2023-12-28T09:24:10.526Z,35.30
2023-12-28T09:26:37.379Z,33.65
2023-12-28T09:29:04.617Z,28.90
2023-12-28T09:31:32.011Z,35.42
2023-12-28T09:34:01.292Z,34.92
2023-12-28T09:36:28.171Z,37.90
2023-12-28T09:39:00.523Z,34.47
2023-12-28T09:41:35.522Z,33.80
2023-12-28T09:44:13.515Z,34.67
2023-12-28T09:46:43.844Z,29.98
2023-12-28T09:49:15.775Z,26.83
2023-12-28T09:51:46.068Z,33.75
2023-12-28T09:54:12.835Z,37.47
2023-12-28T09:56:41.334Z,36.72
2023-12-28T09:59:08.759Z,33.30
2023-12-28T10:01:38.844Z,34.65
2023-12-28T10:04:05.893Z,33.72
2023-12-28T10:06:32.875Z,29.30
2023-12-28T10:09:00.525Z,28.90
2023-12-28T10:11:30.050Z,27.73
2023-12-28T10:13:59.927Z,31.10
2023-12-28T10:16:31.698Z,32.92
2023-12-28T10:18:58.559Z,33.90
2023-12-28T10:21:39.348Z,34.40
2023-12-28T10:24:08.655Z,31.48
2023-12-28T10:26:35.537Z,30.15
2023-12-28T10:29:02.284Z,29.75
2023-12-28T10:31:29.181Z,30.05
2023-12-28T10:34:02.444Z,30.50
2023-12-28T10:36:38.116Z,28.50
2023-12-28T10:39:06.981Z,28.65
2023-12-28T10:41:35.655Z,27.92
2023-12-28T10:44:10.265Z,30.27
2023-12-28T10:46:49.740Z,28.92
2023-12-28T10:49:27.160Z,27.25
2023-12-28T10:51:55.568Z,28.15
2023-12-28T10:54:40.307Z,32.30
2023-12-28T11:00:12.208Z,25.02
2023-12-28T11:02:52.341Z,27.05
2023-12-28T11:05:24.965Z,29.58
2023-12-28T11:07:55.315Z,25.65
2023-12-28T11:10:25.374Z,27.17
2023-12-28T11:13:00.440Z,30.65
2023-12-28T11:15:32.119Z,27.60
2023-12-28T11:17:59.055Z,29.00
2023-12-28T11:20:29.741Z,28.95
2023-12-28T11:22:58.676Z,30.17
2023-12-28T11:25:38.062Z,28.23
2023-12-28T11:28:14.441Z,27.58
2023-12-28T11:30:48.926Z,28.75
2023-12-28T11:33:22.203Z,27.60
2023-12-28T11:35:56.407Z,26.80
2023-12-28T11:38:25.863Z,27.80
2023-12-28T11:40:52.609Z,29.85
2023-12-28T11:43:25.710Z,31.02
2023-12-28T11:45:56.980Z,31.40
2023-12-28T11:48:30.060Z,31.60
2023-12-28T11:50:59.824Z,32.10
2023-12-28T11:53:27.706Z,30.73
2023-12-28T11:56:01.645Z,30.95
2023-12-28T11:58:28.482Z,28.95
2023-12-28T12:00:57.221Z,29.95
2023-12-28T12:03:29.891Z,26.17
2023-12-28T12:05:57.607Z,27.83
2023-12-28T12:08:33.422Z,29.23
2023-12-28T12:11:07.617Z,28.98
2023-12-28T12:16:01.616Z,28.25
2023-12-28T12:18:28.495Z,24.33
2023-12-28T12:20:58.086Z,25.00
2023-12-28T12:23:29.984Z,25.77
2023-12-28T12:25:56.920Z,27.13
2023-12-28T12:28:26.998Z,28.55
2023-12-28T12:30:57.287Z,26.77
2023-12-28T12:33:28.680Z,28.60
2023-12-28T12:35:55.925Z,31.42
2023-12-28T12:38:23.846Z,29.15
2023-12-28T12:40:52.803Z,28.33
2023-12-28T12:43:20.590Z,25.38
2023-12-28T12:45:49.374Z,29.77
2023-12-28T12:48:16.922Z,28.35
2023-12-28T12:50:46.621Z,29.33
2023-12-28T12:53:13.376Z,29.35
2023-12-28T12:55:43.577Z,29.08
2023-12-28T12:58:13.694Z,30.15
2023-12-28T13:00:43.939Z,29.52
2023-12-28T13:03:13.881Z,30.40
2023-12-28T13:05:45.282Z,29.08
2023-12-28T13:08:12.170Z,25.23
2023-12-28T13:10:39.171Z,30.08
2023-12-28T13:13:13.183Z,31.02
2023-12-28T13:15:42.486Z,28.30
2023-12-28T13:18:09.482Z,28.55
2023-12-28T13:20:36.266Z,32.58
2023-12-28T13:23:07.877Z,32.05
2023-12-28T13:25:37.029Z,30.95
2023-12-28T13:28:04.123Z,32.03
2023-12-28T13:30:30.998Z,33.03
2023-12-28T13:32:58.409Z,30.20
2023-12-28T13:35:25.385Z,33.65
2023-12-28T13:37:52.201Z,28.33
2023-12-28T13:40:23.950Z,31.45
2023-12-28T13:42:50.786Z,31.23
2023-12-28T13:45:24.064Z,29.73
2023-12-28T13:47:53.359Z,36.03
2023-12-28T13:50:20.258Z,30.42
2023-12-28T13:52:51.157Z,28.83
2023-12-28T13:55:20.782Z,30.05
2023-12-28T13:57:47.592Z,27.77
2023-12-28T14:00:15.404Z,27.23
2023-12-28T14:02:42.348Z,28.40
2023-12-28T14:05:09.505Z,26.92
2023-12-28T14:07:41.813Z,25.90
2023-12-28T14:10:14.854Z,26.20
2023-12-28T14:12:41.605Z,27.00
2023-12-28T14:15:11.205Z,27.25
2023-12-28T14:17:38.000Z,28.80
2023-12-28T14:20:06.093Z,27.25
2023-12-28T14:22:33.135Z,27.00
2023-12-28T14:25:00.518Z,25.88
2023-12-28T14:27:30.513Z,26.88
2023-12-28T14:29:59.931Z,26.63
2023-12-28T14:32:27.611Z,26.63
2023-12-28T14:34:54.622Z,25.98
2023-12-28T14:37:24.145Z,24.45
2023-12-28T14:39:51.761Z,24.00
2023-12-28T14:42:18.632Z,24.30
2023-12-28T14:44:51.102Z,26.88
2023-12-28T14:47:17.820Z,26.08
2023-12-28T14:49:48.036Z,25.77
2023-12-28T14:52:16.308Z,27.92
2023-12-28T14:54:46.279Z,24.77
2023-12-28T14:57:13.697Z,24.65
2023-12-28T14:59:46.230Z,24.48
2023-12-28T15:02:13.130Z,25.67
2023-12-28T15:04:40.091Z,27.98
2023-12-28T15:07:06.920Z,27.55
2023-12-28T15:09:38.330Z,25.30
2023-12-28T15:12:13.657Z,28.10
2023-12-28T15:14:46.127Z,25.67
2023-12-28T15:17:19.933Z,26.67
2023-12-28T15:19:47.128Z,27.27
2023-12-28T15:22:14.285Z,27.55
2023-12-28T15:24:42.730Z,28.67
2023-12-28T15:27:11.001Z,26.63
2023-12-28T15:29:37.862Z,26.63
2023-12-28T15:32:04.919Z,27.85
2023-12-28T15:34:31.766Z,27.70
2023-12-28T15:36:58.521Z,28.02
2023-12-28T15:39:25.481Z,28.00
2023-12-28T15:41:52.245Z,27.90
2023-12-28T15:44:18.980Z,28.23
2023-12-28T15:46:45.749Z,28.30
2023-12-28T15:49:12.667Z,29.08
2023-12-28T15:51:39.626Z,26.80
2023-12-28T15:54:09.641Z,27.27
2023-12-28T15:56:41.852Z,27.98
2023-12-28T15:59:08.635Z,28.00
2023-12-28T16:01:36.092Z,27.48
2023-12-28T16:04:03.330Z,28.95
2023-12-28T16:06:30.119Z,28.92
2023-12-28T16:09:01.127Z,29.95
2023-12-28T16:11:33.926Z,30.13
2023-12-28T16:14:00.990Z,29.25
2023-12-28T16:16:28.142Z,28.88
2023-12-28T16:19:00.805Z,29.20
2023-12-28T16:21:28.068Z,30.98
2023-12-28T16:23:55.120Z,30.13
2023-12-28T16:26:21.935Z,31.98
2023-12-28T16:28:49.108Z,31.15
2023-12-28T16:31:16.033Z,30.42
2023-12-28T16:33:43.345Z,31.00
2023-12-28T16:36:10.121Z,32.08
2023-12-28T16:38:44.037Z,31.55
2023-12-28T16:41:11.817Z,30.90
2023-12-28T16:43:38.794Z,30.13
2023-12-28T16:46:06.198Z,31.50
2023-12-28T16:48:38.723Z,31.77
2023-12-28T16:51:07.806Z,31.33
2023-12-28T16:53:36.315Z,30.17
2023-12-28T16:56:03.155Z,33.95
2023-12-28T16:58:30.008Z,32.00
2023-12-28T17:00:57.385Z,33.58
2023-12-28T17:03:24.320Z,34.45
2023-12-28T17:05:51.292Z,33.47
2023-12-28T17:08:19.681Z,34.13
2023-12-28T17:10:47.192Z,34.80
2023-12-28T17:13:14.511Z,35.10
2023-12-28T17:15:44.217Z,33.50
2023-12-28T17:18:13.957Z,34.72
2023-12-28T17:20:40.957Z,34.08
2023-12-28T17:23:22.021Z,34.65
2023-12-28T17:26:20.674Z,35.67
2023-12-28T17:28:53.259Z,36.38
2023-12-28T17:31:28.931Z,41.45
2023-12-28T17:33:56.932Z,37.80
2023-12-28T17:36:27.517Z,39.78
2023-12-28T17:38:54.879Z,42.63
2023-12-28T17:41:33.211Z,41.45
2023-12-28T17:44:19.495Z,39.83
2023-12-28T17:46:58.193Z,39.05
2023-12-28T17:49:28.950Z,38.60
2023-12-28T17:52:00.248Z,40.70
2023-12-28T17:54:29.947Z,39.53
2023-12-28T17:57:12.239Z,39.28
2023-12-28T17:59:44.503Z,40.00
2023-12-28T18:02:12.567Z,39.13
2023-12-28T18:04:44.693Z,40.80
2023-12-28T18:07:24.201Z,41.80
2023-12-28T18:09:53.272Z,40.92
2023-12-28T18:12:20.155Z,43.10
2023-12-28T18:14:46.992Z,42.20
2023-12-28T18:17:23.088Z,41.95
2023-12-28T18:19:50.901Z,40.92
2023-12-28T18:22:20.100Z,41.50
2023-12-28T18:24:46.936Z,41.55
2023-12-28T18:27:13.719Z,40.78
2023-12-28T18:29:40.546Z,42.60
2023-12-28T18:32:07.416Z,43.83
2023-12-28T18:34:37.154Z,44.13
2023-12-28T18:37:04.834Z,41.85
2023-12-28T18:39:31.779Z,41.45
2023-12-28T18:41:58.564Z,42.10
2023-12-28T18:44:30.852Z,45.00
2023-12-28T18:46:58.377Z,42.60
2023-12-28T18:49:25.426Z,41.47
2023-12-28T18:51:52.639Z,38.20
2023-12-28T18:54:19.572Z,36.53
2023-12-28T18:56:46.319Z,31.20
2023-12-28T18:59:16.506Z,39.58
2023-12-28T19:01:51.915Z,39.67
2023-12-28T19:04:19.229Z,40.97
2023-12-28T19:06:50.393Z,43.70
2023-12-28T19:09:19.182Z,41.08
2023-12-28T19:11:49.485Z,41.08
2023-12-28T19:14:19.255Z,41.97
2023-12-28T19:16:48.485Z,39.88
2023-12-28T19:19:15.522Z,39.47
2023-12-28T19:21:49.327Z,31.30
2023-12-28T19:24:17.291Z,36.13
2023-12-28T19:26:44.045Z,40.20
2023-12-28T19:29:17.500Z,42.38
2023-12-28T19:31:47.883Z,42.67
2023-12-28T19:34:17.996Z,43.58
2023-12-28T19:36:47.554Z,44.70
2023-12-28T19:39:32.874Z,36.53
2023-12-28T19:41:59.717Z,43.65
2023-12-28T19:44:26.560Z,45.75
2023-12-28T19:46:54.612Z,46.15
2023-12-28T19:49:24.264Z,44.28
2023-12-28T19:51:54.469Z,44.13
2023-12-28T19:54:21.299Z,45.55
2023-12-28T19:56:50.516Z,44.92
2023-12-28T19:59:17.583Z,43.15
2023-12-28T20:01:48.493Z,42.35
2023-12-28T20:04:19.678Z,46.08
2023-12-28T20:06:51.025Z,44.90
2023-12-28T20:09:17.838Z,47.00
2023-12-28T20:11:45.349Z,39.17
2023-12-28T20:14:12.504Z,44.45
2023-12-28T20:16:39.236Z,45.78
2023-12-28T20:19:06.318Z,45.25
2023-12-28T20:21:33.241Z,44.17
2023-12-28T20:24:00.270Z,44.33
2023-12-28T20:26:29.400Z,42.83
2023-12-28T20:28:59.362Z,41.42
2023-12-28T20:31:31.316Z,40.90
2023-12-28T20:33:58.588Z,45.20
2023-12-28T20:36:28.987Z,40.13
2023-12-28T20:38:55.783Z,40.13
2023-12-28T20:41:22.868Z,45.05
2023-12-28T20:43:49.863Z,45.00
2023-12-28T20:46:16.752Z,41.78
2023-12-28T20:48:43.628Z,44.28
2023-12-28T20:51:13.202Z,41.67
2023-12-28T20:53:40.183Z,44.38
2023-12-28T20:56:12.752Z,45.80
2023-12-28T20:58:48.740Z,44.55
2023-12-28T21:01:15.956Z,44.45
2023-12-28T21:03:42.963Z,41.08
2023-12-28T21:06:09.830Z,43.78
2023-12-28T21:08:36.666Z,43.92
2023-12-28T21:11:03.557Z,42.97
2023-12-28T21:13:30.342Z,45.35
2023-12-28T21:15:57.481Z,42.35
2023-12-28T21:18:31.141Z,41.35
2023-12-28T21:23:42.717Z,41.08
2023-12-28T21:26:09.609Z,44.10
2023-12-28T21:28:36.798Z,44.03
2023-12-28T21:31:08.876Z,42.97
2023-12-28T21:33:35.967Z,44.28
2023-12-28T21:36:08.190Z,45.85
2023-12-28T21:38:35.017Z,46.00
2023-12-28T21:41:01.780Z,44.25
2023-12-28T21:43:31.089Z,42.22
2023-12-28T21:46:02.432Z,43.28
2023-12-28T21:48:29.615Z,42.72
2023-12-28T21:51:02.734Z,40.08
2023-12-28T21:53:32.213Z,41.55
2023-12-28T21:55:59.353Z,39.00
2023-12-28T21:58:28.156Z,41.88
2023-12-28T22:00:57.871Z,41.70
2023-12-28T22:03:29.857Z,43.20
2023-12-28T22:05:56.959Z,44.60
2023-12-28T22:08:26.162Z,49.67
2023-12-28T22:10:53.146Z,47.28
2023-12-28T22:13:20.068Z,52.80
2023-12-28T22:15:56.264Z,56.35
2023-12-28T22:18:23.094Z,54.05
2023-12-28T22:20:53.220Z,53.92
2023-12-28T22:23:20.107Z,54.53
2023-12-28T22:25:46.881Z,51.85
2023-12-28T22:28:14.762Z,49.67
2023-12-28T22:30:41.694Z,49.60
2023-12-28T22:33:11.656Z,54.03
2023-12-28T22:35:44.996Z,50.22
2023-12-28T22:38:11.780Z,47.65
2023-12-28T22:40:38.519Z,49.17
2023-12-28T22:43:05.362Z,47.15
2023-12-28T22:45:32.213Z,38.80
2023-12-28T22:47:59.384Z,44.00
2023-12-28T22:50:30.479Z,46.08
2023-12-28T22:52:57.471Z,45.13
2023-12-28T22:55:24.231Z,39.83
2023-12-28T22:57:51.178Z,48.20
2023-12-28T23:00:20.792Z,47.80
2023-12-28T23:02:47.708Z,49.03
2023-12-28T23:05:16.921Z,48.63
2023-12-28T23:07:47.749Z,55.42
2023-12-28T23:10:14.540Z,52.30
2023-12-28T23:12:42.178Z,52.85
2023-12-28T23:15:09.314Z,51.65
2023-12-28T23:17:36.262Z,51.55
2023-12-28T23:20:03.333Z,49.78
2023-12-28T23:22:30.173Z,47.85
2023-12-28T23:25:01.210Z,48.90
2023-12-28T23:27:34.546Z,50.88
2023-12-28T23:30:01.331Z,51.88
2023-12-28T23:32:29.969Z,48.28
2023-12-28T23:34:57.108Z,43.05
2023-12-28T23:37:24.016Z,46.22
2023-12-28T23:39:56.145Z,42.60
2023-12-28T23:42:23.094Z,41.53
2023-12-28T23:44:49.843Z,42.05
2023-12-28T23:47:16.816Z,45.17
2023-12-28T23:49:43.711Z,54.05
2023-12-28T23:52:10.621Z,54.60
2023-12-28T23:54:37.607Z,49.97
2023-12-28T23:57:07.778Z,44.65
2023-12-28T23:59:34.880Z,49.67
